sensor_id;sensor_type;location;lat;lon;timestamp;temperature;humidity
15630;DHT22;7914;50.842;0.166;2023-07-13T00:02:23;16.40;100.00
15630;DHT22;7914;50.842;0.166;2023-07-13T00:04:49;16.40;100.00
15630;DHT22;7914;50.842;0.166;2023-07-13T00:07:16;16.30;100.00
15630;DHT22;7914;50.842;0.166;2023-07-13T00:09:46;16.30;100.00
15630;DHT22;7914;50.842;0.166;2023-07-13T00:12:24;16.30;100.00
15630;DHT22;7914;50.842;0.166;2023-07-13T00:14:50;16.20;100.00
15630;DHT22;7914;50.842;0.166;2023-07-13T00:17:16;16.10;100.00
15630;DHT22;7914;50.842;0.166;2023-07-13T00:19:42;16.10;100.00
15630;DHT22;7914;50.842;0.166;2023-07-13T00:22:08;16.00;100.00
15630;DHT22;7914;50.842;0.166;2023-07-13T00:24:33;16.00;100.00
15630;DHT22;7914;50.842;0.166;2023-07-13T00:27:01;15.90;100.00
15630;DHT22;7914;50.842;0.166;2023-07-13T00:29:27;15.90;100.00
15630;DHT22;7914;50.842;0.166;2023-07-13T00:31:52;16.00;100.00
15630;DHT22;7914;50.842;0.166;2023-07-13T00:34:18;16.00;100.00
15630;DHT22;7914;50.842;0.166;2023-07-13T00:36:44;15.90;100.00
15630;DHT22;7914;50.842;0.166;2023-07-13T00:39:10;15.90;100.00
15630;DHT22;7914;50.842;0.166;2023-07-13T00:41:35;15.90;100.00
15630;DHT22;7914;50.842;0.166;2023-07-13T00:44:02;15.80;100.00
15630;DHT22;7914;50.842;0.166;2023-07-13T00:46:33;15.80;100.00
15630;DHT22;7914;50.842;0.166;2023-07-13T00:49:03;15.70;100.00
15630;DHT22;7914;50.842;0.166;2023-07-13T00:51:40;15.70;100.00
15630;DHT22;7914;50.842;0.166;2023-07-13T00:54:10;15.60;100.00
15630;DHT22;7914;50.842;0.166;2023-07-13T00:56:37;15.60;100.00
15630;DHT22;7914;50.842;0.166;2023-07-13T00:59:05;15.60;100.00
15630;DHT22;7914;50.842;0.166;2023-07-13T01:01:31;15.60;100.00
15630;DHT22;7914;50.842;0.166;2023-07-13T01:03:56;15.50;100.00
15630;DHT22;7914;50.842;0.166;2023-07-13T01:06:25;15.40;100.00
15630;DHT22;7914;50.842;0.166;2023-07-13T01:08:50;15.30;100.00
15630;DHT22;7914;50.842;0.166;2023-07-13T01:11:21;15.30;100.00
15630;DHT22;7914;50.842;0.166;2023-07-13T01:13:48;15.20;100.00
15630;DHT22;7914;50.842;0.166;2023-07-13T01:16:25;15.20;100.00
15630;DHT22;7914;50.842;0.166;2023-07-13T01:18:56;15.20;100.00
15630;DHT22;7914;50.842;0.166;2023-07-13T01:21:28;15.20;100.00
15630;DHT22;7914;50.842;0.166;2023-07-13T01:23:55;15.20;100.00
15630;DHT22;7914;50.842;0.166;2023-07-13T01:26:22;15.20;100.00
15630;DHT22;7914;50.842;0.166;2023-07-13T01:28:47;15.20;100.00
15630;DHT22;7914;50.842;0.166;2023-07-13T01:31:13;15.20;100.00
15630;DHT22;7914;50.842;0.166;2023-07-13T01:33:39;15.20;100.00
15630;DHT22;7914;50.842;0.166;2023-07-13T01:36:09;15.20;100.00
15630;DHT22;7914;50.842;0.166;2023-07-13T01:38:35;15.20;100.00
15630;DHT22;7914;50.842;0.166;2023-07-13T01:41:02;15.10;100.00
15630;DHT22;7914;50.842;0.166;2023-07-13T01:43:28;15.10;100.00
15630;DHT22;7914;50.842;0.166;2023-07-13T01:45:54;15.10;100.00
15630;DHT22;7914;50.842;0.166;2023-07-13T01:48:20;15.10;100.00
15630;DHT22;7914;50.842;0.166;2023-07-13T01:50:46;15.10;100.00
15630;DHT22;7914;50.842;0.166;2023-07-13T01:53:12;15.10;100.00
15630;DHT22;7914;50.842;0.166;2023-07-13T01:55:38;15.00;100.00
15630;DHT22;7914;50.842;0.166;2023-07-13T01:58:04;15.00;100.00
15630;DHT22;7914;50.842;0.166;2023-07-13T02:00:30;15.00;100.00
15630;DHT22;7914;50.842;0.166;2023-07-13T02:02:55;15.00;100.00
15630;DHT22;7914;50.842;0.166;2023-07-13T02:05:21;15.00;100.00
15630;DHT22;7914;50.842;0.166;2023-07-13T02:07:47;15.00;100.00
15630;DHT22;7914;50.842;0.166;2023-07-13T02:10:13;14.90;100.00
15630;DHT22;7914;50.842;0.166;2023-07-13T02:12:39;14.80;100.00
15630;DHT22;7914;50.842;0.166;2023-07-13T02:15:06;14.90;100.00
15630;DHT22;7914;50.842;0.166;2023-07-13T02:17:32;14.90;100.00
15630;DHT22;7914;50.842;0.166;2023-07-13T02:19:58;14.90;100.00
15630;DHT22;7914;50.842;0.166;2023-07-13T02:22:23;14.90;100.00
15630;DHT22;7914;50.842;0.166;2023-07-13T02:24:49;14.80;100.00
15630;DHT22;7914;50.842;0.166;2023-07-13T02:27:15;14.80;100.00
15630;DHT22;7914;50.842;0.166;2023-07-13T02:29:41;14.80;100.00
15630;DHT22;7914;50.842;0.166;2023-07-13T02:32:07;14.80;100.00
15630;DHT22;7914;50.842;0.166;2023-07-13T02:34:34;14.80;100.00
15630;DHT22;7914;50.842;0.166;2023-07-13T02:36:59;14.80;100.00
15630;DHT22;7914;50.842;0.166;2023-07-13T02:39:25;14.70;100.00
15630;DHT22;7914;50.842;0.166;2023-07-13T02:41:51;14.80;100.00
15630;DHT22;7914;50.842;0.166;2023-07-13T02:44:16;14.70;100.00
15630;DHT22;7914;50.842;0.166;2023-07-13T02:46:42;14.80;100.00
15630;DHT22;7914;50.842;0.166;2023-07-13T02:49:08;14.90;100.00
15630;DHT22;7914;50.842;0.166;2023-07-13T02:51:33;14.90;100.00
15630;DHT22;7914;50.842;0.166;2023-07-13T02:54:03;14.80;100.00
15630;DHT22;7914;50.842;0.166;2023-07-13T02:56:31;14.70;100.00
15630;DHT22;7914;50.842;0.166;2023-07-13T02:58:57;14.70;100.00
15630;DHT22;7914;50.842;0.166;2023-07-13T03:01:23;14.70;100.00
15630;DHT22;7914;50.842;0.166;2023-07-13T03:03:50;14.70;100.00
15630;DHT22;7914;50.842;0.166;2023-07-13T03:06:16;14.70;100.00
15630;DHT22;7914;50.842;0.166;2023-07-13T03:08:43;14.60;100.00
15630;DHT22;7914;50.842;0.166;2023-07-13T03:11:15;14.70;100.00
15630;DHT22;7914;50.842;0.166;2023-07-13T03:13:41;14.60;100.00
15630;DHT22;7914;50.842;0.166;2023-07-13T03:16:08;14.50;100.00
15630;DHT22;7914;50.842;0.166;2023-07-13T03:18:35;14.40;100.00
15630;DHT22;7914;50.842;0.166;2023-07-13T03:21:01;14.30;100.00
15630;DHT22;7914;50.842;0.166;2023-07-13T03:23:27;14.20;100.00
15630;DHT22;7914;50.842;0.166;2023-07-13T03:26:14;14.20;100.00
15630;DHT22;7914;50.842;0.166;2023-07-13T03:28:40;14.20;100.00
15630;DHT22;7914;50.842;0.166;2023-07-13T03:31:10;14.10;100.00
15630;DHT22;7914;50.842;0.166;2023-07-13T03:33:36;14.10;100.00
15630;DHT22;7914;50.842;0.166;2023-07-13T03:36:03;14.10;100.00
15630;DHT22;7914;50.842;0.166;2023-07-13T03:38:29;14.00;100.00
15630;DHT22;7914;50.842;0.166;2023-07-13T03:40:55;13.90;100.00
15630;DHT22;7914;50.842;0.166;2023-07-13T03:43:21;13.90;100.00
15630;DHT22;7914;50.842;0.166;2023-07-13T03:45:47;14.00;100.00
15630;DHT22;7914;50.842;0.166;2023-07-13T03:48:13;14.10;100.00
15630;DHT22;7914;50.842;0.166;2023-07-13T03:50:40;14.10;100.00
15630;DHT22;7914;50.842;0.166;2023-07-13T03:53:06;14.10;100.00
15630;DHT22;7914;50.842;0.166;2023-07-13T03:55:31;14.10;100.00
15630;DHT22;7914;50.842;0.166;2023-07-13T03:57:59;14.10;100.00
15630;DHT22;7914;50.842;0.166;2023-07-13T04:00:25;14.20;100.00
15630;DHT22;7914;50.842;0.166;2023-07-13T04:02:51;14.20;100.00
15630;DHT22;7914;50.842;0.166;2023-07-13T04:05:17;14.30;100.00
15630;DHT22;7914;50.842;0.166;2023-07-13T04:07:43;14.30;100.00
15630;DHT22;7914;50.842;0.166;2023-07-13T04:10:09;14.30;100.00
15630;DHT22;7914;50.842;0.166;2023-07-13T04:12:35;14.30;100.00
15630;DHT22;7914;50.842;0.166;2023-07-13T04:15:01;14.60;100.00
15630;DHT22;7914;50.842;0.166;2023-07-13T04:17:27;14.60;100.00
15630;DHT22;7914;50.842;0.166;2023-07-13T04:19:52;14.70;100.00
15630;DHT22;7914;50.842;0.166;2023-07-13T04:22:18;14.80;100.00
15630;DHT22;7914;50.842;0.166;2023-07-13T04:24:44;14.90;100.00
15630;DHT22;7914;50.842;0.166;2023-07-13T04:27:09;14.90;100.00
15630;DHT22;7914;50.842;0.166;2023-07-13T04:29:35;15.00;100.00
15630;DHT22;7914;50.842;0.166;2023-07-13T04:32:01;15.10;100.00
15630;DHT22;7914;50.842;0.166;2023-07-13T04:34:26;15.20;100.00
15630;DHT22;7914;50.842;0.166;2023-07-13T04:36:52;15.30;100.00
15630;DHT22;7914;50.842;0.166;2023-07-13T04:39:18;15.40;100.00
15630;DHT22;7914;50.842;0.166;2023-07-13T04:41:44;15.50;100.00
15630;DHT22;7914;50.842;0.166;2023-07-13T04:44:09;15.70;100.00
15630;DHT22;7914;50.842;0.166;2023-07-13T04:46:35;15.90;100.00
15630;DHT22;7914;50.842;0.166;2023-07-13T04:49:00;16.00;100.00
15630;DHT22;7914;50.842;0.166;2023-07-13T04:51:28;16.20;100.00
15630;DHT22;7914;50.842;0.166;2023-07-13T04:53:54;16.40;100.00
15630;DHT22;7914;50.842;0.166;2023-07-13T04:56:20;16.60;100.00
15630;DHT22;7914;50.842;0.166;2023-07-13T04:58:46;16.70;100.00
15630;DHT22;7914;50.842;0.166;2023-07-13T05:01:12;16.80;100.00
15630;DHT22;7914;50.842;0.166;2023-07-13T05:03:39;16.90;100.00
15630;DHT22;7914;50.842;0.166;2023-07-13T05:06:06;16.90;100.00
15630;DHT22;7914;50.842;0.166;2023-07-13T05:08:33;16.90;100.00
15630;DHT22;7914;50.842;0.166;2023-07-13T05:11:03;17.10;100.00
15630;DHT22;7914;50.842;0.166;2023-07-13T05:13:29;17.30;100.00
15630;DHT22;7914;50.842;0.166;2023-07-13T05:15:58;17.40;100.00
15630;DHT22;7914;50.842;0.166;2023-07-13T05:18:23;17.60;100.00
15630;DHT22;7914;50.842;0.166;2023-07-13T05:21:02;17.80;100.00
15630;DHT22;7914;50.842;0.166;2023-07-13T05:23:28;18.10;100.00
15630;DHT22;7914;50.842;0.166;2023-07-13T05:25:54;18.40;97.60
15630;DHT22;7914;50.842;0.166;2023-07-13T05:28:20;18.60;96.00
15630;DHT22;7914;50.842;0.166;2023-07-13T05:30:47;18.80;95.40
15630;DHT22;7914;50.842;0.166;2023-07-13T05:33:12;19.10;93.00
15630;DHT22;7914;50.842;0.166;2023-07-13T05:35:38;19.40;91.70
15630;DHT22;7914;50.842;0.166;2023-07-13T05:38:04;19.90;89.60
15630;DHT22;7914;50.842;0.166;2023-07-13T05:40:30;20.00;87.40
15630;DHT22;7914;50.842;0.166;2023-07-13T05:42:55;19.90;87.70
15630;DHT22;7914;50.842;0.166;2023-07-13T05:45:21;19.90;87.70
15630;DHT22;7914;50.842;0.166;2023-07-13T05:47:47;20.10;87.70
15630;DHT22;7914;50.842;0.166;2023-07-13T05:50:12;20.70;85.00
15630;DHT22;7914;50.842;0.166;2023-07-13T05:52:38;21.30;82.40
15630;DHT22;7914;50.842;0.166;2023-07-13T05:55:04;21.80;77.10
15630;DHT22;7914;50.842;0.166;2023-07-13T05:57:30;21.60;76.60
15630;DHT22;7914;50.842;0.166;2023-07-13T05:59:56;21.10;78.00
15630;DHT22;7914;50.842;0.166;2023-07-13T06:02:22;21.10;77.80
15630;DHT22;7914;50.842;0.166;2023-07-13T06:04:47;21.30;75.40
15630;DHT22;7914;50.842;0.166;2023-07-13T06:07:14;21.40;76.00
15630;DHT22;7914;50.842;0.166;2023-07-13T06:09:40;21.50;75.40
15630;DHT22;7914;50.842;0.166;2023-07-13T06:12:06;21.20;76.50
15630;DHT22;7914;50.842;0.166;2023-07-13T06:14:32;21.00;75.50
15630;DHT22;7914;50.842;0.166;2023-07-13T06:16:58;20.80;78.10
15630;DHT22;7914;50.842;0.166;2023-07-13T06:19:23;20.80;79.10
15630;DHT22;7914;50.842;0.166;2023-07-13T06:21:49;20.70;79.90
15630;DHT22;7914;50.842;0.166;2023-07-13T06:24:15;20.90;80.10
15630;DHT22;7914;50.842;0.166;2023-07-13T06:26:41;21.00;81.10
15630;DHT22;7914;50.842;0.166;2023-07-13T06:29:07;20.90;80.90
15630;DHT22;7914;50.842;0.166;2023-07-13T06:31:32;20.90;80.10
15630;DHT22;7914;50.842;0.166;2023-07-13T06:33:58;21.00;79.70
15630;DHT22;7914;50.842;0.166;2023-07-13T06:36:24;21.20;78.70
15630;DHT22;7914;50.842;0.166;2023-07-13T06:38:50;21.50;77.30
15630;DHT22;7914;50.842;0.166;2023-07-13T06:41:15;21.50;76.30
15630;DHT22;7914;50.842;0.166;2023-07-13T06:43:41;21.50;76.20
15630;DHT22;7914;50.842;0.166;2023-07-13T06:46:07;21.60;76.40
15630;DHT22;7914;50.842;0.166;2023-07-13T06:48:33;21.90;76.60
15630;DHT22;7914;50.842;0.166;2023-07-13T06:50:59;21.50;75.50
15630;DHT22;7914;50.842;0.166;2023-07-13T06:53:24;21.30;76.20
15630;DHT22;7914;50.842;0.166;2023-07-13T06:55:50;21.20;76.90
15630;DHT22;7914;50.842;0.166;2023-07-13T06:58:17;21.40;74.90
15630;DHT22;7914;50.842;0.166;2023-07-13T07:00:44;22.00;74.80
15630;DHT22;7914;50.842;0.166;2023-07-13T07:03:09;22.30;74.50
15630;DHT22;7914;50.842;0.166;2023-07-13T07:05:35;22.70;72.10
15630;DHT22;7914;50.842;0.166;2023-07-13T07:08:01;22.90;71.00
15630;DHT22;7914;50.842;0.166;2023-07-13T07:10:28;22.90;72.70
15630;DHT22;7914;50.842;0.166;2023-07-13T07:12:54;23.10;70.00
15630;DHT22;7914;50.842;0.166;2023-07-13T07:15:20;23.00;69.70
15630;DHT22;7914;50.842;0.166;2023-07-13T07:17:45;22.60;71.20
15630;DHT22;7914;50.842;0.166;2023-07-13T07:20:12;22.30;72.40
15630;DHT22;7914;50.842;0.166;2023-07-13T07:22:38;21.90;73.60
15630;DHT22;7914;50.842;0.166;2023-07-13T07:25:04;21.70;73.80
15630;DHT22;7914;50.842;0.166;2023-07-13T07:27:30;21.40;75.80
15630;DHT22;7914;50.842;0.166;2023-07-13T07:29:56;21.30;76.50
15630;DHT22;7914;50.842;0.166;2023-07-13T07:32:23;21.20;77.40
15630;DHT22;7914;50.842;0.166;2023-07-13T07:34:49;21.20;77.90
15630;DHT22;7914;50.842;0.166;2023-07-13T07:37:15;21.10;77.20
15630;DHT22;7914;50.842;0.166;2023-07-13T07:39:42;21.00;78.00
15630;DHT22;7914;50.842;0.166;2023-07-13T07:42:08;20.90;78.10
15630;DHT22;7914;50.842;0.166;2023-07-13T07:44:34;20.80;78.90
15630;DHT22;7914;50.842;0.166;2023-07-13T07:47:00;20.50;77.90
15630;DHT22;7914;50.842;0.166;2023-07-13T07:49:26;20.40;79.40
15630;DHT22;7914;50.842;0.166;2023-07-13T07:51:52;20.50;79.90
15630;DHT22;7914;50.842;0.166;2023-07-13T07:54:18;20.50;81.10
15630;DHT22;7914;50.842;0.166;2023-07-13T07:56:43;20.50;82.10
15630;DHT22;7914;50.842;0.166;2023-07-13T07:59:09;20.50;81.40
15630;DHT22;7914;50.842;0.166;2023-07-13T08:01:35;20.60;80.60
15630;DHT22;7914;50.842;0.166;2023-07-13T08:04:01;20.60;80.90
15630;DHT22;7914;50.842;0.166;2023-07-13T08:06:27;20.50;81.00
15630;DHT22;7914;50.842;0.166;2023-07-13T08:08:53;20.70;80.30
15630;DHT22;7914;50.842;0.166;2023-07-13T08:11:20;20.80;78.80
15630;DHT22;7914;50.842;0.166;2023-07-13T08:13:46;20.80;78.20
15630;DHT22;7914;50.842;0.166;2023-07-13T08:16:12;21.00;78.00
15630;DHT22;7914;50.842;0.166;2023-07-13T08:18:38;20.80;82.70
15630;DHT22;7914;50.842;0.166;2023-07-13T08:21:05;19.90;93.80
15630;DHT22;7914;50.842;0.166;2023-07-13T08:23:31;19.10;98.60
15630;DHT22;7914;50.842;0.166;2023-07-13T08:25:58;18.30;100.00
15630;DHT22;7914;50.842;0.166;2023-07-13T08:28:25;17.90;100.00
15630;DHT22;7914;50.842;0.166;2023-07-13T08:30:50;17.70;100.00
15630;DHT22;7914;50.842;0.166;2023-07-13T08:33:20;17.60;100.00
15630;DHT22;7914;50.842;0.166;2023-07-13T08:35:47;17.60;100.00
15630;DHT22;7914;50.842;0.166;2023-07-13T08:38:13;17.70;100.00
15630;DHT22;7914;50.842;0.166;2023-07-13T08:40:40;17.90;100.00
15630;DHT22;7914;50.842;0.166;2023-07-13T08:43:13;18.10;100.00
15630;DHT22;7914;50.842;0.166;2023-07-13T08:45:47;18.30;100.00
15630;DHT22;7914;50.842;0.166;2023-07-13T08:48:52;18.40;100.00
15630;DHT22;7914;50.842;0.166;2023-07-13T08:51:44;18.50;100.00
15630;DHT22;7914;50.842;0.166;2023-07-13T08:56:46;19.00;100.00
15630;DHT22;7914;50.842;0.166;2023-07-13T08:59:20;19.30;100.00
15630;DHT22;7914;50.842;0.166;2023-07-13T09:11:56;20.20;100.00
15630;DHT22;7914;50.842;0.166;2023-07-13T09:14:50;20.30;100.00
15630;DHT22;7914;50.842;0.166;2023-07-13T09:17:41;20.40;100.00
15630;DHT22;7914;50.842;0.166;2023-07-13T09:22:44;20.40;100.00
15630;DHT22;7914;50.842;0.166;2023-07-13T09:27:46;20.90;100.00
15630;DHT22;7914;50.842;0.166;2023-07-13T09:32:46;21.30;100.00
15630;DHT22;7914;50.842;0.166;2023-07-13T09:35:17;21.60;98.90
15630;DHT22;7914;50.842;0.166;2023-07-13T09:37:45;22.10;99.00
15630;DHT22;7914;50.842;0.166;2023-07-13T09:40:21;22.40;95.90
15630;DHT22;7914;50.842;0.166;2023-07-13T09:42:49;22.20;93.40
15630;DHT22;7914;50.842;0.166;2023-07-13T09:45:27;22.20;92.10
15630;DHT22;7914;50.842;0.166;2023-07-13T09:48:00;22.00;93.00
15630;DHT22;7914;50.842;0.166;2023-07-13T09:50:29;21.90;92.40
15630;DHT22;7914;50.842;0.166;2023-07-13T09:52:55;22.10;91.00
15630;DHT22;7914;50.842;0.166;2023-07-13T09:55:33;22.10;90.20
15630;DHT22;7914;50.842;0.166;2023-07-13T09:58:20;21.90;90.10
15630;DHT22;7914;50.842;0.166;2023-07-13T10:00:59;22.00;89.20
15630;DHT22;7914;50.842;0.166;2023-07-13T10:03:28;22.00;90.60
15630;DHT22;7914;50.842;0.166;2023-07-13T10:06:06;22.20;89.00
15630;DHT22;7914;50.842;0.166;2023-07-13T10:08:35;22.20;89.30
15630;DHT22;7914;50.842;0.166;2023-07-13T10:11:17;22.30;86.50
15630;DHT22;7914;50.842;0.166;2023-07-13T10:13:48;22.00;87.60
15630;DHT22;7914;50.842;0.166;2023-07-13T10:16:16;21.90;89.50
15630;DHT22;7914;50.842;0.166;2023-07-13T10:18:51;22.00;87.20
15630;DHT22;7914;50.842;0.166;2023-07-13T10:21:20;21.70;88.00
15630;DHT22;7914;50.842;0.166;2023-07-13T10:24:17;21.60;88.00
15630;DHT22;7914;50.842;0.166;2023-07-13T10:27:18;21.60;88.70
15630;DHT22;7914;50.842;0.166;2023-07-13T10:32:46;21.80;88.50
15630;DHT22;7914;50.842;0.166;2023-07-13T10:35:14;22.30;88.50
15630;DHT22;7914;50.842;0.166;2023-07-13T10:37:52;22.60;85.80
15630;DHT22;7914;50.842;0.166;2023-07-13T10:41:15;22.60;84.10
15630;DHT22;7914;50.842;0.166;2023-07-13T10:43:47;22.70;84.20
15630;DHT22;7914;50.842;0.166;2023-07-13T10:46:18;22.70;83.80
15630;DHT22;7914;50.842;0.166;2023-07-13T10:48:48;22.70;84.40
15630;DHT22;7914;50.842;0.166;2023-07-13T10:51:17;22.80;84.00
15630;DHT22;7914;50.842;0.166;2023-07-13T10:53:47;23.00;81.00
15630;DHT22;7914;50.842;0.166;2023-07-13T10:56:29;22.90;81.40
15630;DHT22;7914;50.842;0.166;2023-07-13T10:59:10;23.00;81.10
15630;DHT22;7914;50.842;0.166;2023-07-13T11:01:46;22.90;81.70
15630;DHT22;7914;50.842;0.166;2023-07-13T11:04:14;22.80;80.10
15630;DHT22;7914;50.842;0.166;2023-07-13T11:06:41;22.80;79.60
15630;DHT22;7914;50.842;0.166;2023-07-13T11:09:37;23.10;81.20
15630;DHT22;7914;50.842;0.166;2023-07-13T11:12:07;23.40;78.60
15630;DHT22;7914;50.842;0.166;2023-07-13T11:15:00;23.60;75.10
15630;DHT22;7914;50.842;0.166;2023-07-13T11:28:04;23.10;81.60
15630;DHT22;7914;50.842;0.166;2023-07-13T11:38:22;23.30;76.90
15630;DHT22;7914;50.842;0.166;2023-07-13T11:40:51;23.40;75.80
15630;DHT22;7914;50.842;0.166;2023-07-13T11:43:19;23.30;74.80
15630;DHT22;7914;50.842;0.166;2023-07-13T11:45:45;23.40;74.00
15630;DHT22;7914;50.842;0.166;2023-07-13T11:48:29;23.30;71.90
15630;DHT22;7914;50.842;0.166;2023-07-13T11:51:03;22.90;75.30
15630;DHT22;7914;50.842;0.166;2023-07-13T11:53:37;22.90;77.20
15630;DHT22;7914;50.842;0.166;2023-07-13T11:56:03;23.00;76.00
15630;DHT22;7914;50.842;0.166;2023-07-13T11:58:30;22.70;75.90
15630;DHT22;7914;50.842;0.166;2023-07-13T12:00:59;23.10;75.70
15630;DHT22;7914;50.842;0.166;2023-07-13T12:03:27;23.50;74.70
15630;DHT22;7914;50.842;0.166;2023-07-13T12:06:02;23.50;72.70
15630;DHT22;7914;50.842;0.166;2023-07-13T12:08:29;23.20;75.10
15630;DHT22;7914;50.842;0.166;2023-07-13T12:11:04;22.80;74.60
15630;DHT22;7914;50.842;0.166;2023-07-13T12:13:38;22.40;75.70
15630;DHT22;7914;50.842;0.166;2023-07-13T12:16:14;22.50;76.30
15630;DHT22;7914;50.842;0.166;2023-07-13T12:18:43;22.40;75.90
15630;DHT22;7914;50.842;0.166;2023-07-13T12:21:13;22.70;76.60
15630;DHT22;7914;50.842;0.166;2023-07-13T12:23:40;22.80;74.00
15630;DHT22;7914;50.842;0.166;2023-07-13T12:26:09;22.70;75.60
15630;DHT22;7914;50.842;0.166;2023-07-13T12:28:52;23.00;72.50
15630;DHT22;7914;50.842;0.166;2023-07-13T12:31:45;23.10;75.50
15630;DHT22;7914;50.842;0.166;2023-07-13T12:34:23;23.30;75.00
15630;DHT22;7914;50.842;0.166;2023-07-13T12:36:59;23.40;72.80
15630;DHT22;7914;50.842;0.166;2023-07-13T12:39:46;23.10;73.90
15630;DHT22;7914;50.842;0.166;2023-07-13T12:42:33;23.30;74.90
15630;DHT22;7914;50.842;0.166;2023-07-13T12:45:03;23.40;73.10
15630;DHT22;7914;50.842;0.166;2023-07-13T12:47:42;23.30;75.10
15630;DHT22;7914;50.842;0.166;2023-07-13T12:50:16;23.40;73.90
15630;DHT22;7914;50.842;0.166;2023-07-13T12:52:44;23.60;76.40
15630;DHT22;7914;50.842;0.166;2023-07-13T12:55:18;23.80;75.10
15630;DHT22;7914;50.842;0.166;2023-07-13T12:57:53;23.80;71.80
15630;DHT22;7914;50.842;0.166;2023-07-13T13:00:58;23.60;72.30
15630;DHT22;7914;50.842;0.166;2023-07-13T13:03:31;23.40;72.00
15630;DHT22;7914;50.842;0.166;2023-07-13T13:05:59;23.00;73.40
15630;DHT22;7914;50.842;0.166;2023-07-13T13:08:25;23.00;73.10
15630;DHT22;7914;50.842;0.166;2023-07-13T13:10:51;22.90;72.80
15630;DHT22;7914;50.842;0.166;2023-07-13T13:13:17;22.70;74.30
15630;DHT22;7914;50.842;0.166;2023-07-13T13:15:42;22.50;73.20
15630;DHT22;7914;50.842;0.166;2023-07-13T13:18:26;22.40;73.40
15630;DHT22;7914;50.842;0.166;2023-07-13T13:20:52;22.20;75.00
15630;DHT22;7914;50.842;0.166;2023-07-13T13:23:20;22.00;75.80
15630;DHT22;7914;50.842;0.166;2023-07-13T13:25:50;21.90;78.50
15630;DHT22;7914;50.842;0.166;2023-07-13T13:28:20;21.90;78.50
15630;DHT22;7914;50.842;0.166;2023-07-13T13:30:48;22.20;78.40
15630;DHT22;7914;50.842;0.166;2023-07-13T13:33:17;22.20;77.80
15630;DHT22;7914;50.842;0.166;2023-07-13T13:35:43;22.30;77.80
15630;DHT22;7914;50.842;0.166;2023-07-13T13:38:19;22.20;76.60
15630;DHT22;7914;50.842;0.166;2023-07-13T13:40:46;22.10;77.20
15630;DHT22;7914;50.842;0.166;2023-07-13T13:43:22;22.10;77.60
15630;DHT22;7914;50.842;0.166;2023-07-13T13:45:52;22.20;78.20
15630;DHT22;7914;50.842;0.166;2023-07-13T13:48:21;22.10;76.40
15630;DHT22;7914;50.842;0.166;2023-07-13T13:50:56;22.10;76.80
15630;DHT22;7914;50.842;0.166;2023-07-13T13:53:22;22.20;77.20
15630;DHT22;7914;50.842;0.166;2023-07-13T13:55:49;22.30;74.50
15630;DHT22;7914;50.842;0.166;2023-07-13T13:58:16;22.30;73.20
15630;DHT22;7914;50.842;0.166;2023-07-13T14:00:41;22.40;73.60
15630;DHT22;7914;50.842;0.166;2023-07-13T14:03:21;22.70;71.10
15630;DHT22;7914;50.842;0.166;2023-07-13T14:05:48;22.60;70.20
15630;DHT22;7914;50.842;0.166;2023-07-13T14:08:19;22.80;70.10
15630;DHT22;7914;50.842;0.166;2023-07-13T14:10:47;22.80;69.40
15630;DHT22;7914;50.842;0.166;2023-07-13T14:13:47;22.90;67.80
15630;DHT22;7914;50.842;0.166;2023-07-13T14:16:20;22.90;65.80
15630;DHT22;7914;50.842;0.166;2023-07-13T14:18:47;22.70;67.00
15630;DHT22;7914;50.842;0.166;2023-07-13T14:21:15;22.60;67.20
15630;DHT22;7914;50.842;0.166;2023-07-13T14:23:43;22.60;67.00
15630;DHT22;7914;50.842;0.166;2023-07-13T14:26:16;22.70;67.30
15630;DHT22;7914;50.842;0.166;2023-07-13T14:28:44;22.70;66.30
15630;DHT22;7914;50.842;0.166;2023-07-13T14:31:12;22.80;66.20
15630;DHT22;7914;50.842;0.166;2023-07-13T14:33:38;22.90;67.40
15630;DHT22;7914;50.842;0.166;2023-07-13T14:38:48;22.90;64.40
15630;DHT22;7914;50.842;0.166;2023-07-13T14:41:14;22.80;65.40
15630;DHT22;7914;50.842;0.166;2023-07-13T14:43:39;22.80;65.00
15630;DHT22;7914;50.842;0.166;2023-07-13T14:46:07;22.60;66.80
15630;DHT22;7914;50.842;0.166;2023-07-13T14:48:42;22.50;67.00
15630;DHT22;7914;50.842;0.166;2023-07-13T14:51:09;22.40;68.00
15630;DHT22;7914;50.842;0.166;2023-07-13T14:53:35;22.20;70.30
15630;DHT22;7914;50.842;0.166;2023-07-13T14:56:10;22.30;69.30
15630;DHT22;7914;50.842;0.166;2023-07-13T14:58:36;22.00;70.10
15630;DHT22;7914;50.842;0.166;2023-07-13T15:01:02;21.90;70.70
15630;DHT22;7914;50.842;0.166;2023-07-13T15:03:27;21.80;71.40
15630;DHT22;7914;50.842;0.166;2023-07-13T15:05:53;21.90;71.80
15630;DHT22;7914;50.842;0.166;2023-07-13T15:08:19;22.00;70.70
15630;DHT22;7914;50.842;0.166;2023-07-13T15:10:45;22.10;69.70
15630;DHT22;7914;50.842;0.166;2023-07-13T15:13:19;22.10;71.60
15630;DHT22;7914;50.842;0.166;2023-07-13T15:15:49;22.00;71.30
15630;DHT22;7914;50.842;0.166;2023-07-13T15:18:19;22.20;70.30
15630;DHT22;7914;50.842;0.166;2023-07-13T15:20:47;22.00;71.20
15630;DHT22;7914;50.842;0.166;2023-07-13T15:23:15;21.70;73.10
15630;DHT22;7914;50.842;0.166;2023-07-13T15:25:41;21.90;73.70
15630;DHT22;7914;50.842;0.166;2023-07-13T15:28:07;21.90;73.50
15630;DHT22;7914;50.842;0.166;2023-07-13T15:30:48;22.10;72.50
15630;DHT22;7914;50.842;0.166;2023-07-13T15:33:28;22.10;72.40
15630;DHT22;7914;50.842;0.166;2023-07-13T15:35:54;22.00;72.50
15630;DHT22;7914;50.842;0.166;2023-07-13T15:38:30;21.80;73.90
15630;DHT22;7914;50.842;0.166;2023-07-13T15:40:57;21.70;74.40
15630;DHT22;7914;50.842;0.166;2023-07-13T15:43:22;21.70;73.30
15630;DHT22;7914;50.842;0.166;2023-07-13T15:45:48;21.60;73.20
15630;DHT22;7914;50.842;0.166;2023-07-13T15:48:23;21.60;74.80
15630;DHT22;7914;50.842;0.166;2023-07-13T15:50:51;21.70;74.00
15630;DHT22;7914;50.842;0.166;2023-07-13T15:53:22;21.70;73.20
15630;DHT22;7914;50.842;0.166;2023-07-13T15:55:48;21.50;74.90
15630;DHT22;7914;50.842;0.166;2023-07-13T15:58:15;21.40;75.40
15630;DHT22;7914;50.842;0.166;2023-07-13T16:00:41;21.20;75.00
15630;DHT22;7914;50.842;0.166;2023-07-13T16:03:08;21.10;74.70
15630;DHT22;7914;50.842;0.166;2023-07-13T16:05:34;20.90;75.40
15630;DHT22;7914;50.842;0.166;2023-07-13T16:08:01;20.70;75.50
15630;DHT22;7914;50.842;0.166;2023-07-13T16:10:35;20.60;77.40
15630;DHT22;7914;50.842;0.166;2023-07-13T16:13:03;20.60;77.90
15630;DHT22;7914;50.842;0.166;2023-07-13T16:15:30;20.50;78.60
15630;DHT22;7914;50.842;0.166;2023-07-13T16:17:56;20.60;78.40
15630;DHT22;7914;50.842;0.166;2023-07-13T16:20:23;20.60;77.70
15630;DHT22;7914;50.842;0.166;2023-07-13T16:22:52;20.50;79.90
15630;DHT22;7914;50.842;0.166;2023-07-13T16:25:24;20.60;78.10
15630;DHT22;7914;50.842;0.166;2023-07-13T16:27:52;20.40;78.50
15630;DHT22;7914;50.842;0.166;2023-07-13T16:30:21;20.40;78.70
15630;DHT22;7914;50.842;0.166;2023-07-13T16:32:48;20.40;79.30
15630;DHT22;7914;50.842;0.166;2023-07-13T16:35:20;20.30;80.80
15630;DHT22;7914;50.842;0.166;2023-07-13T16:37:46;20.40;80.30